METAR Data
IDs: Format: Raw Decoded Include TAF

Data at: 0457 UTC 26 Sep 2018

KCDR 260453Z AUTO 18003KT 10SM CLR 04/02 A3030 RMK AO2 SLP274 T00440022
KCDR 260353Z AUTO 25004KT 10SM CLR 04/02 A3030 RMK AO2 SLP274 T00390017
KCDR 260253Z AUTO 00000KT 10SM CLR 06/02 A3028 RMK AO2 SLP267 T00610022 51018
KCDR 260153Z AUTO 30007KT 10SM CLR 10/02 A3026 RMK AO2 SLP258 T01000017
KCDR 260053Z AUTO 31009KT 10SM CLR 12/01 A3024 RMK AO2 SLP248 T01220006
KCDR 252353Z AUTO 32007KT 10SM OVC095 14/01 A3022 RMK AO2 SLP237 T01440011 10172 20133 53010
KCDR 252253Z AUTO 32014G21KT 10SM FEW065 16/02 A3020 RMK AO2 SLP230 T01610017
KCDR 252153Z AUTO 32017G22KT 10SM FEW065 16/01 A3018 RMK AO2 PK WND 32027/2132 SLP223 T01610006
KCDR 252053Z AUTO 31015G23KT 10SM BKN075 16/01 A3018 RMK AO2 PK WND 29035/2040 SLP222 T01610006 58014
KCDR 251953Z AUTO 32014G23KT 10SM BKN070 16/02 A3019 RMK AO2 PK WND 31028/1924 SLP225 T01610022
KCDR 251853Z AUTO 32016G25KT 10SM CLR 14/02 A3022 RMK AO2 PK WND 33026/1816 SLP235 T01440022
KCDR 251753Z AUTO 32018G22KT 10SM FEW047 14/03 A3023 RMK AO2 SLP238 T01390033 10139 20067 50004
KCDR 251653Z AUTO 30018G26KT 10SM CLR 12/04 A3023 RMK AO2 PK WND 31028/1626 SLP240 T01220039
KCDR 251553Z AUTO 30019G26KT 10SM CLR 11/05 A3022 RMK AO2 PK WND 30026/1457 SLP238 T01110050
KCDR 251453Z AUTO 31020G26KT 10SM CLR 09/05 A3022 RMK AO2 PK WND 31026/1452 SLP237 T00940050 51015
KCDR 251353Z AUTO 29013G22KT 10SM CLR 08/06 A3020 RMK AO2 SLP232 T00780056
KCDR 251253Z AUTO 28013KT 10SM CLR 07/06 A3019 RMK AO2 SLP226 T00720056
KCDR 251153Z AUTO 29007KT 10SM BKN045 OVC055 08/07 A3017 RMK AO2 SLP217 60024 70046 T00780067 10100 20078 53008
KCDR 251135Z AUTO 29008KT 10SM SCT019 BKN045 OVC055 08/07 A3016 RMK AO2 T00830067
KCDR 251053Z AUTO 26004KT 10SM BKN019 BKN025 OVC034 08/08 A3015 RMK AO2 RAE17 SLP206 P0000 T00830078
KCDR 251049Z AUTO 00000KT 10SM BKN017 BKN023 OVC034 08/08 A3014 RMK AO2 RAE17 P0000
KCDR 250953Z AUTO 29003KT 6SM -RA BR FEW014 BKN037 OVC044 08/08 A3014 RMK AO2 SLP202 P0005 T00830078
KCDR 250853Z AUTO 33006KT 8SM -RA FEW021 SCT036 OVC045 08/07 A3012 RMK AO2 SLP195 P0006 60019 T00830072 51012
KCDR 250812Z AUTO 32008KT 6SM -RA BR SCT013 OVC041 09/08 A3012 RMK AO2 P0003 T00890078
KCDR 250753Z AUTO 33008KT 4SM RA BR BKN014 BKN018 OVC033 09/08 A3011 RMK AO2 PRESRR SLP194 P0011 T00890083
KCDR 250745Z AUTO 33008KT 4SM RA BR FEW010 BKN015 OVC031 09/08 A3011 RMK AO2 P0008 T00940083
KCDR 250729Z AUTO 01008KT 3SM -RA BR SCT009 BKN012 OVC031 09/09 A3009 RMK AO2 P0005 T00940089
KCDR 250653Z AUTO 33009KT 5SM -RA BR BKN012 OVC036 09/08 A3008 RMK AO2 RAE00B41 SLP185 P0002 T00940083 402060094
KCDR 250651Z AUTO 34008KT 5SM -RA BR BKN012 BKN036 OVC043 09/08 A3008 RMK AO2 RAE00B41 P0002
KCDR 250553Z AUTO 03013KT 10SM -RA FEW023 BKN036 OVC047 10/08 A3003 RMK AO2 LTG DSNT S SLP169 P0010 60020 T01000083 10167 20100 51010
KCDR 250549Z AUTO 03014G21KT 8SM -RA FEW023 BKN030 OVC045 10/08 A3003 RMK AO2 LTG DSNT S P0010
KCDR 250527Z AUTO 02013KT 5SM -RA BR FEW019 BKN024 OVC047 11/09 A3003 RMK AO2 LTG DSNT SE P0009 T01110094
KCDR 250518Z AUTO 36007KT 4SM RA BR FEW009 SCT020 OVC045 11/10 A3003 RMK AO2 LTG DSNT SE P0008 T01110100
KCDR 250453Z AUTO 21006KT 6SM -RA BR SCT047 OVC070 11/10 A3001 RMK AO2 LTG DSNT E-S TSE07 PRESRR SLP160 P0006 T01110100
KCDR 250450Z AUTO 21006KT 8SM -RA SCT047 OVC070 11/10 A3000 RMK AO2 LTG DSNT E-S TSE07 PRESRR P0005
KCDR 250435Z AUTO 07004KT 10SM VCTS -RA OVC070 12/10 A2997 RMK AO2 LTG DSNT E-SW TSE07 PRESRR P0004 T01170100
KCDR 250428Z AUTO 03005KT 10SM -RA OVC070 11/09 A2996 RMK AO2 LTG DSNT E-SW TSE07 P0004 T01110094
KCDR 250413Z AUTO 06007KT 7SM VCTS -RA BKN070 OVC085 11/09 A2995 RMK AO2 LTG DSNT SE AND SW TSE07 P0004 T01110094
KCDR 250353Z AUTO 24005KT 10SM -TSRA SCT070 OVC085 12/09 A2997 RMK AO2 LTG DSNT SW RAB07E40B43 TSB06E36B52 PRESRR SLP150 P0004 T01170094
KCDR 250342Z AUTO 02004KT 10SM VCTS FEW050 BKN075 OVC085 12/09 A2994 RMK AO2 LTG DSNT E AND SW RAB07E40 TSB06E36 P0004 T01170094
KCDR 250312Z AUTO 32006KT 10SM -TSRA OVC080 12/08 A2996 RMK AO2 LTG DSNT E AND SW RAB07 TSB06 PRESRR P0001 T01220083
KCDR 250253Z AUTO 05006KT 10SM VCTS BKN080 BKN090 12/08 A2993 RMK AO2 LTG DSNT SE-W RAE28 TSB0157E18 SLP137 P0000 60000 T01220083 53008
KCDR 250224Z AUTO 03007KT 10SM -RA FEW033 BKN090 12/09 A2994 RMK AO2 LTG DSNT SE AND S TSB0157E18 P0000 T01220089
KCDR 250203Z AUTO 00000KT 10SM -TSRA SCT085 BKN110 13/08 A2994 RMK AO2 LTG DSNT SE TSB0157 PRESRR P0000 T01330083
KCDR 250153Z AUTO 04006KT 10SM VCTS -RA FEW075 SCT090 BKN110 13/08 A2991 RMK AO2 RAB53 SLP128 P0000 T01330078
KCDR 250150Z AUTO 03008KT 10SM VCTS FEW070 SCT090 BKN110 13/08 A2990 RMK AO2 LTG DSNT SW
KCDR 250053Z AUTO 03007KT 10SM FEW040 15/08 A2990 RMK AO2 LTG DSNT E AND SE RAB00E16 SLP125 P0000 T01500078
KCDR 250037Z AUTO 05008KT 10SM SCT041 SCT075 BKN095 16/08 A2990 RMK AO2 LTG DSNT SE RAB00E16 P0000 T01560078
KCDR 250022Z AUTO 04010KT 10SM VCTS FEW050 BKN075 OVC090 17/08 A2991 RMK AO2 RAB00E16 P0000 T01670078
KCDR 242353Z AUTO 04011KT 10SM OVC080 17/07 A2990 RMK AO2 LTG DSNT SW SLP122 T01670072 10206 20161 53006
KCDR 242253Z AUTO 03012KT 10SM CLR 19/07 A2989 RMK AO2 SLP116 T01940067
KCDR 242153Z AUTO 08006KT 10SM FEW120 20/06 A2988 RMK AO2 SLP109 T02000061
KCDR 242053Z AUTO 13007KT 10SM CLR 19/06 A2988 RMK AO2 SLP113 T01890061 56016
KCDR 241953Z AUTO 05010G16KT 10SM CLR 19/06 A2989 RMK AO2 SLP114 T01940061
KCDR 241853Z AUTO 07010KT 10SM CLR 17/07 A2991 RMK AO2 SLP123 T01720072
KCDR 241753Z AUTO 07011KT 10SM CLR 16/08 A2993 RMK AO2 SLP133 60002 T01610078 10161 20100 58002